sensor_id;sensor_type;location;lat;lon;timestamp;temperature;humidity
16140;DHT22;8175;49.326;12.690;2023-02-03T00:00:57;0.50;99.90
16140;DHT22;8175;49.326;12.690;2023-02-03T00:03:23;0.60;99.90
16140;DHT22;8175;49.326;12.690;2023-02-03T00:05:49;0.60;99.90
16140;DHT22;8175;49.326;12.690;2023-02-03T00:08:16;0.60;99.90
16140;DHT22;8175;49.326;12.690;2023-02-03T00:10:44;0.60;99.90
16140;DHT22;8175;49.326;12.690;2023-02-03T00:13:09;0.50;99.90
16140;DHT22;8175;49.326;12.690;2023-02-03T00:15:35;0.60;99.90
16140;DHT22;8175;49.326;12.690;2023-02-03T00:18:01;0.60;99.90
16140;DHT22;8175;49.326;12.690;2023-02-03T00:20:26;0.50;99.90
16140;DHT22;8175;49.326;12.690;2023-02-03T00:22:52;0.60;99.90
16140;DHT22;8175;49.326;12.690;2023-02-03T00:25:17;0.60;99.90
16140;DHT22;8175;49.326;12.690;2023-02-03T00:27:44;0.60;99.90
16140;DHT22;8175;49.326;12.690;2023-02-03T00:30:11;0.60;99.90
16140;DHT22;8175;49.326;12.690;2023-02-03T00:32:37;0.60;99.90
16140;DHT22;8175;49.326;12.690;2023-02-03T00:35:03;0.60;99.90
16140;DHT22;8175;49.326;12.690;2023-02-03T00:37:29;0.60;99.90
16140;DHT22;8175;49.326;12.690;2023-02-03T00:39:55;0.60;99.90
16140;DHT22;8175;49.326;12.690;2023-02-03T00:42:20;0.60;99.90
16140;DHT22;8175;49.326;12.690;2023-02-03T00:44:46;0.70;99.90
16140;DHT22;8175;49.326;12.690;2023-02-03T00:47:11;0.80;99.90
16140;DHT22;8175;49.326;12.690;2023-02-03T00:49:37;0.70;99.90
16140;DHT22;8175;49.326;12.690;2023-02-03T00:52:03;0.70;99.90
16140;DHT22;8175;49.326;12.690;2023-02-03T00:54:29;0.60;99.90
16140;DHT22;8175;49.326;12.690;2023-02-03T00:56:54;0.70;99.90
16140;DHT22;8175;49.326;12.690;2023-02-03T00:59:20;0.80;99.90
16140;DHT22;8175;49.326;12.690;2023-02-03T01:01:45;0.80;99.90
16140;DHT22;8175;49.326;12.690;2023-02-03T01:04:14;0.80;99.90
16140;DHT22;8175;49.326;12.690;2023-02-03T01:06:39;0.80;99.90
16140;DHT22;8175;49.326;12.690;2023-02-03T01:09:05;0.80;99.90
16140;DHT22;8175;49.326;12.690;2023-02-03T01:11:31;0.90;99.90
16140;DHT22;8175;49.326;12.690;2023-02-03T01:13:57;0.90;99.90
16140;DHT22;8175;49.326;12.690;2023-02-03T01:16:28;0.90;99.90
16140;DHT22;8175;49.326;12.690;2023-02-03T01:18:55;0.90;99.90
16140;DHT22;8175;49.326;12.690;2023-02-03T01:21:23;1.00;99.90
16140;DHT22;8175;49.326;12.690;2023-02-03T01:23:49;1.10;99.90
16140;DHT22;8175;49.326;12.690;2023-02-03T01:26:19;1.00;99.90
16140;DHT22;8175;49.326;12.690;2023-02-03T01:28:53;1.00;99.90
16140;DHT22;8175;49.326;12.690;2023-02-03T01:31:22;1.00;99.90
16140;DHT22;8175;49.326;12.690;2023-02-03T01:33:51;1.10;99.90
16140;DHT22;8175;49.326;12.690;2023-02-03T01:36:17;1.10;99.90
16140;DHT22;8175;49.326;12.690;2023-02-03T01:38:44;1.20;99.90
16140;DHT22;8175;49.326;12.690;2023-02-03T01:41:13;1.20;99.90
16140;DHT22;8175;49.326;12.690;2023-02-03T01:43:45;1.10;99.90
16140;DHT22;8175;49.326;12.690;2023-02-03T01:46:30;1.20;99.90
16140;DHT22;8175;49.326;12.690;2023-02-03T01:51:30;1.10;99.90
16140;DHT22;8175;49.326;12.690;2023-02-03T01:53:57;1.30;99.90
16140;DHT22;8175;49.326;12.690;2023-02-03T01:56:24;1.30;99.90
16140;DHT22;8175;49.326;12.690;2023-02-03T01:58:51;1.20;99.90
16140;DHT22;8175;49.326;12.690;2023-02-03T02:01:17;1.30;99.90
16140;DHT22;8175;49.326;12.690;2023-02-03T02:03:53;1.30;99.90
16140;DHT22;8175;49.326;12.690;2023-02-03T02:06:19;1.40;99.90
16140;DHT22;8175;49.326;12.690;2023-02-03T02:08:47;1.40;99.90
16140;DHT22;8175;49.326;12.690;2023-02-03T02:11:13;1.40;99.90
16140;DHT22;8175;49.326;12.690;2023-02-03T02:13:40;1.30;99.90
16140;DHT22;8175;49.326;12.690;2023-02-03T02:16:26;1.40;99.90
16140;DHT22;8175;49.326;12.690;2023-02-03T02:36:06;1.30;99.90
16140;DHT22;8175;49.326;12.690;2023-02-03T02:38:49;1.40;99.90
16140;DHT22;8175;49.326;12.690;2023-02-03T02:44:11;1.40;99.90
16140;DHT22;8175;49.326;12.690;2023-02-03T02:47:00;1.50;99.90
16140;DHT22;8175;49.326;12.690;2023-02-03T02:51:57;1.50;99.90
16140;DHT22;8175;49.326;12.690;2023-02-03T02:54:25;1.40;99.90
16140;DHT22;8175;49.326;12.690;2023-02-03T02:56:54;1.50;99.90
16140;DHT22;8175;49.326;12.690;2023-02-03T02:59:21;1.50;99.90
16140;DHT22;8175;49.326;12.690;2023-02-03T03:01:46;1.50;99.90
16140;DHT22;8175;49.326;12.690;2023-02-03T03:04:14;1.50;99.90
16140;DHT22;8175;49.326;12.690;2023-02-03T03:06:49;1.50;99.90
16140;DHT22;8175;49.326;12.690;2023-02-03T03:09:34;1.50;99.90
16140;DHT22;8175;49.326;12.690;2023-02-03T03:12:07;1.50;99.90
16140;DHT22;8175;49.326;12.690;2023-02-03T03:14:35;1.60;99.90
16140;DHT22;8175;49.326;12.690;2023-02-03T03:17:05;1.60;99.90
16140;DHT22;8175;49.326;12.690;2023-02-03T03:19:36;1.70;99.90
16140;DHT22;8175;49.326;12.690;2023-02-03T03:22:06;1.60;99.90
16140;DHT22;8175;49.326;12.690;2023-02-03T03:24:40;1.60;99.90
16140;DHT22;8175;49.326;12.690;2023-02-03T03:27:31;1.60;99.90
16140;DHT22;8175;49.326;12.690;2023-02-03T03:29:59;1.70;99.90
16140;DHT22;8175;49.326;12.690;2023-02-03T03:32:27;1.60;99.90
16140;DHT22;8175;49.326;12.690;2023-02-03T03:34:55;1.60;99.90
16140;DHT22;8175;49.326;12.690;2023-02-03T03:38:16;1.70;99.90
16140;DHT22;8175;49.326;12.690;2023-02-03T03:40:24;1.70;99.90
16140;DHT22;8175;49.326;12.690;2023-02-03T03:43:01;1.70;99.90
16140;DHT22;8175;49.326;12.690;2023-02-03T03:45:43;1.70;99.90
16140;DHT22;8175;49.326;12.690;2023-02-03T03:48:15;1.70;99.90
16140;DHT22;8175;49.326;12.690;2023-02-03T03:50:49;1.70;99.90
16140;DHT22;8175;49.326;12.690;2023-02-03T03:53:17;1.70;99.90
16140;DHT22;8175;49.326;12.690;2023-02-03T03:55:47;1.80;99.90
16140;DHT22;8175;49.326;12.690;2023-02-03T03:58:18;1.80;99.90
16140;DHT22;8175;49.326;12.690;2023-02-03T04:00:46;1.90;99.90
16140;DHT22;8175;49.326;12.690;2023-02-03T04:03:22;1.90;99.90
16140;DHT22;8175;49.326;12.690;2023-02-03T04:05:49;1.90;99.90
16140;DHT22;8175;49.326;12.690;2023-02-03T04:08:14;2.00;99.90
16140;DHT22;8175;49.326;12.690;2023-02-03T04:10:41;2.00;99.90
16140;DHT22;8175;49.326;12.690;2023-02-03T04:13:09;2.10;99.90
16140;DHT22;8175;49.326;12.690;2023-02-03T04:15:35;2.00;99.90
16140;DHT22;8175;49.326;12.690;2023-02-03T04:18:01;2.10;99.90
16140;DHT22;8175;49.326;12.690;2023-02-03T04:20:28;2.10;99.90
16140;DHT22;8175;49.326;12.690;2023-02-03T04:22:54;2.10;99.90
16140;DHT22;8175;49.326;12.690;2023-02-03T04:25:19;2.20;99.90
16140;DHT22;8175;49.326;12.690;2023-02-03T04:27:45;2.20;99.90
16140;DHT22;8175;49.326;12.690;2023-02-03T04:30:12;2.30;99.90
16140;DHT22;8175;49.326;12.690;2023-02-03T04:32:37;2.30;99.90
16140;DHT22;8175;49.326;12.690;2023-02-03T04:35:04;2.30;99.90
16140;DHT22;8175;49.326;12.690;2023-02-03T04:37:30;2.30;99.90
16140;DHT22;8175;49.326;12.690;2023-02-03T04:39:56;2.30;99.90
16140;DHT22;8175;49.326;12.690;2023-02-03T04:42:22;2.30;99.90
16140;DHT22;8175;49.326;12.690;2023-02-03T04:44:48;2.30;99.90
16140;DHT22;8175;49.326;12.690;2023-02-03T04:47:15;2.30;99.90
16140;DHT22;8175;49.326;12.690;2023-02-03T04:49:40;2.40;99.90
16140;DHT22;8175;49.326;12.690;2023-02-03T04:52:06;2.50;99.90
16140;DHT22;8175;49.326;12.690;2023-02-03T04:54:32;2.40;99.90
16140;DHT22;8175;49.326;12.690;2023-02-03T04:56:58;2.50;99.90
16140;DHT22;8175;49.326;12.690;2023-02-03T04:59:24;2.50;99.90
16140;DHT22;8175;49.326;12.690;2023-02-03T05:01:50;2.50;99.90
16140;DHT22;8175;49.326;12.690;2023-02-03T05:04:15;2.60;99.90
16140;DHT22;8175;49.326;12.690;2023-02-03T05:06:41;2.60;99.90
16140;DHT22;8175;49.326;12.690;2023-02-03T05:09:07;2.70;99.90
16140;DHT22;8175;49.326;12.690;2023-02-03T05:11:32;2.60;99.90
16140;DHT22;8175;49.326;12.690;2023-02-03T05:13:58;2.60;99.90
16140;DHT22;8175;49.326;12.690;2023-02-03T05:16:24;2.60;99.90
16140;DHT22;8175;49.326;12.690;2023-02-03T05:18:49;2.60;99.90
16140;DHT22;8175;49.326;12.690;2023-02-03T05:21:15;2.60;99.90
16140;DHT22;8175;49.326;12.690;2023-02-03T05:23:41;2.70;99.90
16140;DHT22;8175;49.326;12.690;2023-02-03T05:26:07;2.70;99.90
16140;DHT22;8175;49.326;12.690;2023-02-03T05:28:32;2.70;99.90
16140;DHT22;8175;49.326;12.690;2023-02-03T05:30:59;2.70;99.90
16140;DHT22;8175;49.326;12.690;2023-02-03T05:33:25;2.60;99.90
16140;DHT22;8175;49.326;12.690;2023-02-03T05:35:50;2.60;99.90
16140;DHT22;8175;49.326;12.690;2023-02-03T05:38:16;2.60;99.90
16140;DHT22;8175;49.326;12.690;2023-02-03T05:40:42;2.60;99.90
16140;DHT22;8175;49.326;12.690;2023-02-03T05:43:27;2.60;99.90
16140;DHT22;8175;49.326;12.690;2023-02-03T05:45:53;2.70;99.90
16140;DHT22;8175;49.326;12.690;2023-02-03T05:48:19;2.60;99.90
16140;DHT22;8175;49.326;12.690;2023-02-03T05:50:44;2.60;99.90
16140;DHT22;8175;49.326;12.690;2023-02-03T05:53:10;2.60;99.90
16140;DHT22;8175;49.326;12.690;2023-02-03T05:55:36;2.60;99.90
16140;DHT22;8175;49.326;12.690;2023-02-03T05:58:03;2.60;99.90
16140;DHT22;8175;49.326;12.690;2023-02-03T06:00:29;2.60;99.90
16140;DHT22;8175;49.326;12.690;2023-02-03T06:02:57;2.60;99.90
16140;DHT22;8175;49.326;12.690;2023-02-03T06:05:24;2.60;99.90
16140;DHT22;8175;49.326;12.690;2023-02-03T06:07:50;2.70;99.90
16140;DHT22;8175;49.326;12.690;2023-02-03T06:10:16;2.60;99.90
16140;DHT22;8175;49.326;12.690;2023-02-03T06:12:42;2.60;99.90
16140;DHT22;8175;49.326;12.690;2023-02-03T06:15:09;2.60;99.90
16140;DHT22;8175;49.326;12.690;2023-02-03T06:17:34;2.60;99.90
16140;DHT22;8175;49.326;12.690;2023-02-03T06:20:04;2.60;99.90
16140;DHT22;8175;49.326;12.690;2023-02-03T06:22:30;2.60;99.90
16140;DHT22;8175;49.326;12.690;2023-02-03T06:24:56;2.60;99.90
16140;DHT22;8175;49.326;12.690;2023-02-03T06:27:22;2.50;99.90
16140;DHT22;8175;49.326;12.690;2023-02-03T06:29:48;2.60;99.90
16140;DHT22;8175;49.326;12.690;2023-02-03T06:32:14;2.70;99.90
16140;DHT22;8175;49.326;12.690;2023-02-03T06:34:40;2.60;99.90
16140;DHT22;8175;49.326;12.690;2023-02-03T06:37:05;2.60;99.90
16140;DHT22;8175;49.326;12.690;2023-02-03T06:39:31;2.60;99.90
16140;DHT22;8175;49.326;12.690;2023-02-03T06:41:56;2.70;99.90
16140;DHT22;8175;49.326;12.690;2023-02-03T06:44:22;2.60;99.90
16140;DHT22;8175;49.326;12.690;2023-02-03T06:46:48;2.80;99.90
16140;DHT22;8175;49.326;12.690;2023-02-03T06:49:15;2.70;99.90
16140;DHT22;8175;49.326;12.690;2023-02-03T06:51:42;2.70;99.90
16140;DHT22;8175;49.326;12.690;2023-02-03T06:54:09;2.70;99.90
16140;DHT22;8175;49.326;12.690;2023-02-03T06:56:34;2.70;99.90
16140;DHT22;8175;49.326;12.690;2023-02-03T06:59:00;2.70;99.90
16140;DHT22;8175;49.326;12.690;2023-02-03T07:01:25;2.70;99.90
16140;DHT22;8175;49.326;12.690;2023-02-03T07:03:51;2.70;99.90
16140;DHT22;8175;49.326;12.690;2023-02-03T07:06:17;2.80;99.90
16140;DHT22;8175;49.326;12.690;2023-02-03T07:08:43;2.80;99.90
16140;DHT22;8175;49.326;12.690;2023-02-03T07:11:08;2.80;99.90
16140;DHT22;8175;49.326;12.690;2023-02-03T07:13:34;2.80;99.90
16140;DHT22;8175;49.326;12.690;2023-02-03T07:16:00;2.80;99.90
16140;DHT22;8175;49.326;12.690;2023-02-03T07:18:25;2.80;99.90
16140;DHT22;8175;49.326;12.690;2023-02-03T07:20:51;2.80;99.90
16140;DHT22;8175;49.326;12.690;2023-02-03T07:23:18;2.80;99.90
16140;DHT22;8175;49.326;12.690;2023-02-03T07:25:44;2.90;99.90
16140;DHT22;8175;49.326;12.690;2023-02-03T07:28:09;2.80;99.90
16140;DHT22;8175;49.326;12.690;2023-02-03T07:30:35;2.90;99.90
16140;DHT22;8175;49.326;12.690;2023-02-03T07:33:01;2.90;99.90
16140;DHT22;8175;49.326;12.690;2023-02-03T07:35:27;3.00;99.90
16140;DHT22;8175;49.326;12.690;2023-02-03T07:37:53;3.00;99.90
16140;DHT22;8175;49.326;12.690;2023-02-03T07:40:19;3.00;99.90
16140;DHT22;8175;49.326;12.690;2023-02-03T07:42:46;3.00;99.90
16140;DHT22;8175;49.326;12.690;2023-02-03T07:45:14;3.00;99.90
16140;DHT22;8175;49.326;12.690;2023-02-03T07:47:41;3.00;99.90
16140;DHT22;8175;49.326;12.690;2023-02-03T07:50:09;3.00;99.90
16140;DHT22;8175;49.326;12.690;2023-02-03T07:52:35;3.00;99.90
16140;DHT22;8175;49.326;12.690;2023-02-03T07:55:01;3.00;99.90
16140;DHT22;8175;49.326;12.690;2023-02-03T07:57:27;3.00;99.90
16140;DHT22;8175;49.326;12.690;2023-02-03T07:59:53;3.00;99.90
16140;DHT22;8175;49.326;12.690;2023-02-03T08:02:18;3.10;99.90
16140;DHT22;8175;49.326;12.690;2023-02-03T08:04:44;3.00;99.90
16140;DHT22;8175;49.326;12.690;2023-02-03T08:07:10;3.10;99.90
16140;DHT22;8175;49.326;12.690;2023-02-03T08:09:35;3.00;99.90
16140;DHT22;8175;49.326;12.690;2023-02-03T08:12:01;3.00;99.90
16140;DHT22;8175;49.326;12.690;2023-02-03T08:14:27;3.10;99.90
16140;DHT22;8175;49.326;12.690;2023-02-03T08:16:52;3.10;99.90
16140;DHT22;8175;49.326;12.690;2023-02-03T08:19:18;3.10;99.90
16140;DHT22;8175;49.326;12.690;2023-02-03T08:21:43;3.10;99.90
16140;DHT22;8175;49.326;12.690;2023-02-03T08:24:09;3.10;99.90
16140;DHT22;8175;49.326;12.690;2023-02-03T08:26:35;3.10;99.90
16140;DHT22;8175;49.326;12.690;2023-02-03T08:29:02;3.20;99.90
16140;DHT22;8175;49.326;12.690;2023-02-03T08:31:28;3.20;99.90
16140;DHT22;8175;49.326;12.690;2023-02-03T08:33:54;3.20;99.90
16140;DHT22;8175;49.326;12.690;2023-02-03T08:36:20;3.30;99.90
16140;DHT22;8175;49.326;12.690;2023-02-03T08:38:45;3.20;99.90
16140;DHT22;8175;49.326;12.690;2023-02-03T08:41:13;3.20;99.90
16140;DHT22;8175;49.326;12.690;2023-02-03T08:43:40;3.20;99.90
16140;DHT22;8175;49.326;12.690;2023-02-03T08:46:07;3.30;99.90
16140;DHT22;8175;49.326;12.690;2023-02-03T08:48:33;3.20;99.90
16140;DHT22;8175;49.326;12.690;2023-02-03T08:50:59;3.30;99.90
16140;DHT22;8175;49.326;12.690;2023-02-03T08:53:25;3.30;99.90
16140;DHT22;8175;49.326;12.690;2023-02-03T08:55:52;3.30;99.90
16140;DHT22;8175;49.326;12.690;2023-02-03T08:58:18;3.30;99.90
16140;DHT22;8175;49.326;12.690;2023-02-03T09:00:44;3.30;99.90
16140;DHT22;8175;49.326;12.690;2023-02-03T09:03:09;3.30;99.90
16140;DHT22;8175;49.326;12.690;2023-02-03T09:05:35;3.40;99.90
16140;DHT22;8175;49.326;12.690;2023-02-03T09:08:01;3.30;99.90
16140;DHT22;8175;49.326;12.690;2023-02-03T09:10:27;3.40;99.90
16140;DHT22;8175;49.326;12.690;2023-02-03T09:12:53;3.40;99.90
16140;DHT22;8175;49.326;12.690;2023-02-03T09:15:18;3.40;99.90
16140;DHT22;8175;49.326;12.690;2023-02-03T09:17:44;3.40;99.90
16140;DHT22;8175;49.326;12.690;2023-02-03T09:20:10;3.40;99.90
16140;DHT22;8175;49.326;12.690;2023-02-03T09:22:38;3.50;99.90
16140;DHT22;8175;49.326;12.690;2023-02-03T09:25:05;3.50;99.90
16140;DHT22;8175;49.326;12.690;2023-02-03T09:27:30;3.50;99.90
16140;DHT22;8175;49.326;12.690;2023-02-03T09:29:56;3.50;99.90
16140;DHT22;8175;49.326;12.690;2023-02-03T09:32:23;3.50;99.90
16140;DHT22;8175;49.326;12.690;2023-02-03T09:34:48;3.50;99.90
16140;DHT22;8175;49.326;12.690;2023-02-03T09:37:14;3.50;99.90
16140;DHT22;8175;49.326;12.690;2023-02-03T09:39:40;3.50;99.90
16140;DHT22;8175;49.326;12.690;2023-02-03T09:45:20;3.50;99.90
16140;DHT22;8175;49.326;12.690;2023-02-03T09:47:49;3.50;99.90
16140;DHT22;8175;49.326;12.690;2023-02-03T09:50:24;3.50;99.90
16140;DHT22;8175;49.326;12.690;2023-02-03T09:52:51;3.50;99.90
16140;DHT22;8175;49.326;12.690;2023-02-03T09:58:04;3.50;99.90
16140;DHT22;8175;49.326;12.690;2023-02-03T10:00:43;3.50;99.90
16140;DHT22;8175;49.326;12.690;2023-02-03T10:03:33;3.50;99.90
16140;DHT22;8175;49.326;12.690;2023-02-03T10:17:36;3.60;99.90
16140;DHT22;8175;49.326;12.690;2023-02-03T10:22:40;3.70;99.90
16140;DHT22;8175;49.326;12.690;2023-02-03T10:27:40;3.70;99.90
16140;DHT22;8175;49.326;12.690;2023-02-03T10:30:21;3.60;99.90
16140;DHT22;8175;49.326;12.690;2023-02-03T10:32:56;3.60;99.90
16140;DHT22;8175;49.326;12.690;2023-02-03T10:35:33;3.70;99.90
16140;DHT22;8175;49.326;12.690;2023-02-03T10:38:01;3.70;99.90
16140;DHT22;8175;49.326;12.690;2023-02-03T10:40:27;3.70;99.90
16140;DHT22;8175;49.326;12.690;2023-02-03T10:42:54;3.80;99.90
16140;DHT22;8175;49.326;12.690;2023-02-03T10:45:38;3.80;99.90
16140;DHT22;8175;49.326;12.690;2023-02-03T10:48:06;3.80;99.90
16140;DHT22;8175;49.326;12.690;2023-02-03T10:50:37;3.70;99.90
16140;DHT22;8175;49.326;12.690;2023-02-03T10:53:21;3.70;99.90
16140;DHT22;8175;49.326;12.690;2023-02-03T10:55:50;3.70;99.90
16140;DHT22;8175;49.326;12.690;2023-02-03T10:58:26;3.80;99.90
16140;DHT22;8175;49.326;12.690;2023-02-03T11:01:13;3.80;99.90
16140;DHT22;8175;49.326;12.690;2023-02-03T11:04:00;3.80;99.90
16140;DHT22;8175;49.326;12.690;2023-02-03T11:06:28;3.80;99.90
16140;DHT22;8175;49.326;12.690;2023-02-03T11:08:54;3.80;99.90
16140;DHT22;8175;49.326;12.690;2023-02-03T11:11:28;3.80;99.90
16140;DHT22;8175;49.326;12.690;2023-02-03T11:14:09;3.80;99.90
16140;DHT22;8175;49.326;12.690;2023-02-03T11:16:36;3.90;99.90
16140;DHT22;8175;49.326;12.690;2023-02-03T11:19:24;3.90;99.90
16140;DHT22;8175;49.326;12.690;2023-02-03T11:21:52;4.00;99.90
16140;DHT22;8175;49.326;12.690;2023-02-03T11:27:12;4.00;99.90
16140;DHT22;8175;49.326;12.690;2023-02-03T11:29:41;4.00;99.90
16140;DHT22;8175;49.326;12.690;2023-02-03T11:32:19;3.90;99.90
16140;DHT22;8175;49.326;12.690;2023-02-03T11:34:57;4.00;99.90
16140;DHT22;8175;49.326;12.690;2023-02-03T11:37:34;4.10;99.90
16140;DHT22;8175;49.326;12.690;2023-02-03T11:42:38;4.10;99.90
16140;DHT22;8175;49.326;12.690;2023-02-03T11:45:28;4.10;99.90
16140;DHT22;8175;49.326;12.690;2023-02-03T12:10:05;3.90;99.90
16140;DHT22;8175;49.326;12.690;2023-02-03T12:12:50;4.00;99.90
16140;DHT22;8175;49.326;12.690;2023-02-03T12:24:13;4.00;99.90
16140;DHT22;8175;49.326;12.690;2023-02-03T12:29:29;4.00;99.90
16140;DHT22;8175;49.326;12.690;2023-02-03T12:34:37;4.10;99.90
16140;DHT22;8175;49.326;12.690;2023-02-03T12:37:08;4.10;99.90
16140;DHT22;8175;49.326;12.690;2023-02-03T12:39:43;4.10;99.90
16140;DHT22;8175;49.326;12.690;2023-02-03T12:47:28;4.10;99.90
16140;DHT22;8175;49.326;12.690;2023-02-03T12:49:59;4.10;99.90
16140;DHT22;8175;49.326;12.690;2023-02-03T12:52:50;4.10;99.90
16140;DHT22;8175;49.326;12.690;2023-02-03T12:55:33;4.00;99.90
16140;DHT22;8175;49.326;12.690;2023-02-03T12:58:05;4.10;99.90
16140;DHT22;8175;49.326;12.690;2023-02-03T13:03:29;4.10;99.90
16140;DHT22;8175;49.326;12.690;2023-02-03T13:08:34;4.00;99.90
16140;DHT22;8175;49.326;12.690;2023-02-03T13:13:49;3.90;99.90
16140;DHT22;8175;49.326;12.690;2023-02-03T13:16:20;4.00;99.90
16140;DHT22;8175;49.326;12.690;2023-02-03T13:18:53;4.00;99.90
16140;DHT22;8175;49.326;12.690;2023-02-03T13:21:21;4.00;99.90
16140;DHT22;8175;49.326;12.690;2023-02-03T13:23:48;4.00;99.90
16140;DHT22;8175;49.326;12.690;2023-02-03T13:42:43;3.90;99.90
16140;DHT22;8175;49.326;12.690;2023-02-03T13:45:29;4.00;99.90
16140;DHT22;8175;49.326;12.690;2023-02-03T13:48:13;4.00;99.90
16140;DHT22;8175;49.326;12.690;2023-02-03T13:50:40;4.00;99.90
16140;DHT22;8175;49.326;12.690;2023-02-03T13:53:20;4.00;99.90
16140;DHT22;8175;49.326;12.690;2023-02-03T13:55:55;4.00;99.90
16140;DHT22;8175;49.326;12.690;2023-02-03T13:58:28;3.90;99.90
16140;DHT22;8175;49.326;12.690;2023-02-03T14:05:53;4.00;99.90
16140;DHT22;8175;49.326;12.690;2023-02-03T14:16:50;4.00;99.90
16140;DHT22;8175;49.326;12.690;2023-02-03T14:24:35;4.00;99.90
16140;DHT22;8175;49.326;12.690;2023-02-03T14:27:05;4.00;99.90
16140;DHT22;8175;49.326;12.690;2023-02-03T14:29:40;4.00;99.90
16140;DHT22;8175;49.326;12.690;2023-02-03T14:32:10;4.00;99.90
16140;DHT22;8175;49.326;12.690;2023-02-03T14:34:39;3.90;99.90
16140;DHT22;8175;49.326;12.690;2023-02-03T14:40:18;4.00;99.90
16140;DHT22;8175;49.326;12.690;2023-02-03T14:43:12;4.00;99.90
16140;DHT22;8175;49.326;12.690;2023-02-03T14:48:32;4.00;99.90
16140;DHT22;8175;49.326;12.690;2023-02-03T14:58:57;4.00;99.90
16140;DHT22;8175;49.326;12.690;2023-02-03T15:06:41;4.00;99.90
16140;DHT22;8175;49.326;12.690;2023-02-03T15:09:38;3.90;99.90
16140;DHT22;8175;49.326;12.690;2023-02-03T15:12:18;4.00;99.90
16140;DHT22;8175;49.326;12.690;2023-02-03T15:14:44;4.00;99.90
16140;DHT22;8175;49.326;12.690;2023-02-03T15:17:22;4.00;99.90
16140;DHT22;8175;49.326;12.690;2023-02-03T15:19:49;4.00;99.90
16140;DHT22;8175;49.326;12.690;2023-02-03T15:22:22;4.10;99.90
16140;DHT22;8175;49.326;12.690;2023-02-03T15:24:50;4.10;99.90
16140;DHT22;8175;49.326;12.690;2023-02-03T15:29:46;4.00;99.90
16140;DHT22;8175;49.326;12.690;2023-02-03T15:32:18;4.00;99.90
16140;DHT22;8175;49.326;12.690;2023-02-03T15:34:49;4.00;99.90
16140;DHT22;8175;49.326;12.690;2023-02-03T15:37:17;4.00;99.90
16140;DHT22;8175;49.326;12.690;2023-02-03T15:42:21;4.00;99.90
16140;DHT22;8175;49.326;12.690;2023-02-03T15:47:38;4.10;99.90
16140;DHT22;8175;49.326;12.690;2023-02-03T15:50:28;4.10;99.90
16140;DHT22;8175;49.326;12.690;2023-02-03T15:52:58;4.10;99.90
16140;DHT22;8175;49.326;12.690;2023-02-03T15:55:53;4.10;99.90
16140;DHT22;8175;49.326;12.690;2023-02-03T15:58:24;4.10;99.90
16140;DHT22;8175;49.326;12.690;2023-02-03T16:00:53;4.10;99.90
16140;DHT22;8175;49.326;12.690;2023-02-03T16:06:24;4.10;99.90
16140;DHT22;8175;49.326;12.690;2023-02-03T16:08:52;4.10;99.90
16140;DHT22;8175;49.326;12.690;2023-02-03T16:11:33;4.10;99.90
16140;DHT22;8175;49.326;12.690;2023-02-03T16:14:01;4.00;99.90
16140;DHT22;8175;49.326;12.690;2023-02-03T16:16:51;4.00;99.90
16140;DHT22;8175;49.326;12.690;2023-02-03T16:19:22;4.00;99.90
16140;DHT22;8175;49.326;12.690;2023-02-03T16:24:38;4.00;99.90
16140;DHT22;8175;49.326;12.690;2023-02-03T16:35:57;4.10;99.90
16140;DHT22;8175;49.326;12.690;2023-02-03T16:38:46;4.10;99.90
16140;DHT22;8175;49.326;12.690;2023-02-03T16:41:31;4.10;99.90
16140;DHT22;8175;49.326;12.690;2023-02-03T16:44:16;4.10;99.90
16140;DHT22;8175;49.326;12.690;2023-02-03T16:47:01;4.10;99.90
16140;DHT22;8175;49.326;12.690;2023-02-03T16:49:45;4.20;99.90
16140;DHT22;8175;49.326;12.690;2023-02-03T16:52:30;4.10;99.90
16140;DHT22;8175;49.326;12.690;2023-02-03T16:54:57;4.10;99.90
16140;DHT22;8175;49.326;12.690;2023-02-03T16:57:23;4.10;99.90
16140;DHT22;8175;49.326;12.690;2023-02-03T16:59:49;4.10;99.90
16140;DHT22;8175;49.326;12.690;2023-02-03T17:02:15;4.00;99.90
16140;DHT22;8175;49.326;12.690;2023-02-03T17:04:40;4.10;99.90
16140;DHT22;8175;49.326;12.690;2023-02-03T17:07:06;4.10;99.90
16140;DHT22;8175;49.326;12.690;2023-02-03T17:09:32;4.20;99.90
16140;DHT22;8175;49.326;12.690;2023-02-03T17:12:02;4.20;99.90
16140;DHT22;8175;49.326;12.690;2023-02-03T17:14:28;4.20;99.90
16140;DHT22;8175;49.326;12.690;2023-02-03T17:16:55;4.10;99.90
16140;DHT22;8175;49.326;12.690;2023-02-03T17:19:21;4.20;99.90
16140;DHT22;8175;49.326;12.690;2023-02-03T17:21:47;4.10;99.90
16140;DHT22;8175;49.326;12.690;2023-02-03T17:24:13;4.10;99.90
16140;DHT22;8175;49.326;12.690;2023-02-03T17:26:39;4.20;99.90
16140;DHT22;8175;49.326;12.690;2023-02-03T17:29:04;4.10;99.90
16140;DHT22;8175;49.326;12.690;2023-02-03T17:31:31;4.20;99.90
16140;DHT22;8175;49.326;12.690;2023-02-03T17:33:57;4.20;99.90
16140;DHT22;8175;49.326;12.690;2023-02-03T17:36:23;4.20;99.90
16140;DHT22;8175;49.326;12.690;2023-02-03T17:38:49;4.20;99.90
16140;DHT22;8175;49.326;12.690;2023-02-03T17:41:17;4.20;99.90
16140;DHT22;8175;49.326;12.690;2023-02-03T17:43:44;4.20;99.90
16140;DHT22;8175;49.326;12.690;2023-02-03T17:46:12;4.10;99.90
16140;DHT22;8175;49.326;12.690;2023-02-03T17:48:38;4.10;99.90
16140;DHT22;8175;49.326;12.690;2023-02-03T17:51:18;4.20;99.90
16140;DHT22;8175;49.326;12.690;2023-02-03T17:53:45;4.10;99.90
16140;DHT22;8175;49.326;12.690;2023-02-03T17:56:15;4.10;99.90
16140;DHT22;8175;49.326;12.690;2023-02-03T17:58:42;4.10;99.90
16140;DHT22;8175;49.326;12.690;2023-02-03T18:01:13;3.90;99.90
16140;DHT22;8175;49.326;12.690;2023-02-03T18:03:44;4.10;99.90
16140;DHT22;8175;49.326;12.690;2023-02-03T18:06:11;4.10;99.90
16140;DHT22;8175;49.326;12.690;2023-02-03T18:08:37;4.00;99.90
16140;DHT22;8175;49.326;12.690;2023-02-03T18:11:03;4.00;99.90
16140;DHT22;8175;49.326;12.690;2023-02-03T18:13:29;4.00;99.90
16140;DHT22;8175;49.326;12.690;2023-02-03T18:15:58;4.10;99.90
16140;DHT22;8175;49.326;12.690;2023-02-03T18:18:24;4.00;99.90
16140;DHT22;8175;49.326;12.690;2023-02-03T18:20:51;3.90;99.90
16140;DHT22;8175;49.326;12.690;2023-02-03T18:23:16;3.80;99.90
16140;DHT22;8175;49.326;12.690;2023-02-03T18:25:45;3.90;99.90
16140;DHT22;8175;49.326;12.690;2023-02-03T18:28:11;3.70;99.90
16140;DHT22;8175;49.326;12.690;2023-02-03T18:30:37;3.70;99.90
16140;DHT22;8175;49.326;12.690;2023-02-03T18:33:03;3.90;99.90
16140;DHT22;8175;49.326;12.690;2023-02-03T18:35:28;3.80;99.90
16140;DHT22;8175;49.326;12.690;2023-02-03T18:37:54;3.60;99.90
16140;DHT22;8175;49.326;12.690;2023-02-03T18:40:20;3.60;99.90
16140;DHT22;8175;49.326;12.690;2023-02-03T18:42:46;3.60;99.90
16140;DHT22;8175;49.326;12.690;2023-02-03T18:45:11;3.60;99.90
16140;DHT22;8175;49.326;12.690;2023-02-03T18:47:37;3.50;99.90
16140;DHT22;8175;49.326;12.690;2023-02-03T18:50:03;3.50;99.90
16140;DHT22;8175;49.326;12.690;2023-02-03T18:52:29;3.40;99.90
16140;DHT22;8175;49.326;12.690;2023-02-03T18:54:55;3.30;99.90
16140;DHT22;8175;49.326;12.690;2023-02-03T18:57:20;3.30;99.90